Sant Just Desvern, Spain
Current Conditions -  °F | °C
As of 5:00 AM on Friday 31 Oct 2014 (Local Time) from LEBL Reporting Station
Haze Haze  
Wind Chill: 63°   Ceiling: 2500
Heat Index: 63°   Visibility: 2.5mi
Dew Point: 59°   Wind: 6mph
Humidity: 88%   Direction: 350°N
Pressure: 30.21"   Gusts: NA
Location:  41.39°N, 2.08°E
Report Text: LEBL 310400Z 35005KT 4000 BR BKN025 17/15 Q1023 NOSIG
Loading
Personal Weather Stations






























Interactive Weather Map
Tropical Storm Tracking
New forecast layout! Learn more

10-Day Weather Forecast

Advertisements
Track Severe Weather on mobile